Wax, Kentucky
Current Conditions -  °F | °C
As of 7:15 AM on Thursday 27 Nov 2014 (Local Time) from KGLW Reporting Station
Overcast Overcast  
Wind Chill: 29°   Ceiling: 1400
Heat Index: 33°   Visibility: 7mi
Dew Point: 32°   Wind: 5mph
Humidity: 96%   Direction: 310°NW
Pressure: 30.28"   Gusts: NA
Location:  37.4262°N, 86.1465°W
Report Text: KGLW 271315Z AUTO 31004KT 7SM OVC014 01/00 A3028 RMK AO2 T00050000
Loading
Personal Weather Stations






























Interactive Weather Map New forecast layout! Learn more

10-Day Weather Forecast

Advertisements
Track Severe Weather on mobile